createdAt,value
2023-03-27T00:00:06.969Z,997.72
2023-03-27T00:01:06.980Z,997.74
2023-03-27T00:02:07.180Z,997.72
2023-03-27T00:03:07.087Z,997.73
2023-03-27T00:04:07.052Z,997.74
2023-03-27T00:05:06.977Z,997.75
2023-03-27T00:06:06.998Z,997.74
2023-03-27T00:07:07.296Z,997.73
2023-03-27T00:08:06.990Z,997.71
2023-03-27T00:09:06.992Z,997.74
2023-03-27T00:10:06.992Z,997.73
2023-03-27T00:11:06.991Z,997.71
2023-03-27T00:12:07.001Z,997.70
2023-03-27T00:13:07.017Z,997.70
2023-03-27T00:14:06.995Z,997.71
2023-03-27T00:15:07.013Z,997.61
2023-03-27T00:16:07.000Z,997.67
2023-03-27T00:17:07.004Z,997.64
2023-03-27T00:18:07.045Z,997.69
2023-03-27T00:19:07.011Z,997.61
2023-03-27T00:20:07.021Z,997.60
2023-03-27T00:21:07.008Z,997.68
2023-03-27T00:22:07.024Z,997.58
2023-03-27T00:23:07.012Z,997.58
2023-03-27T00:24:07.022Z,997.58
2023-03-27T00:25:07.019Z,997.52
2023-03-27T00:26:07.023Z,997.55
2023-03-27T00:27:07.035Z,997.59
2023-03-27T00:28:07.029Z,997.57
2023-03-27T00:29:07.063Z,997.52
2023-03-27T00:30:07.029Z,997.56
2023-03-27T00:31:07.083Z,997.54
2023-03-27T00:32:07.032Z,997.44
2023-03-27T00:33:07.084Z,997.51
2023-03-27T00:34:07.035Z,997.44
2023-03-27T00:35:07.037Z,997.44
2023-03-27T00:36:07.078Z,997.43
2023-03-27T00:37:07.049Z,997.40
2023-03-27T00:38:07.038Z,997.43
2023-03-27T00:39:07.045Z,997.41
2023-03-27T00:40:07.048Z,997.35
2023-03-27T00:41:07.063Z,997.35
2023-03-27T00:42:07.054Z,997.37
2023-03-27T00:43:07.059Z,997.40
2023-03-27T00:44:07.057Z,997.37
2023-03-27T00:45:07.076Z,997.40
2023-03-27T00:46:07.144Z,997.33
2023-03-27T00:47:07.058Z,997.34
2023-03-27T00:48:07.099Z,997.36
2023-03-27T00:49:07.061Z,997.34
2023-03-27T00:50:07.065Z,997.34
2023-03-27T00:51:07.078Z,997.33
2023-03-27T00:52:07.111Z,997.35
2023-03-27T00:53:07.074Z,997.29
2023-03-27T00:54:07.098Z,997.27
2023-03-27T00:55:07.075Z,997.28
2023-03-27T00:56:07.073Z,997.27
2023-03-27T00:57:07.165Z,997.30
2023-03-27T00:58:07.078Z,997.26
2023-03-27T00:59:07.090Z,997.28
2023-03-27T01:00:09.355Z,997.25
2023-03-27T01:01:07.329Z,997.29
2023-03-27T01:02:07.088Z,997.32
2023-03-27T01:03:07.148Z,997.29
2023-03-27T01:04:07.096Z,997.25
2023-03-27T01:05:07.100Z,997.27
2023-03-27T01:06:07.098Z,997.29
2023-03-27T01:07:07.097Z,997.24
2023-03-27T01:08:07.103Z,997.28
2023-03-27T01:09:07.108Z,997.25
2023-03-27T01:10:07.098Z,997.23
2023-03-27T01:11:07.102Z,997.26
2023-03-27T01:12:07.122Z,997.22
2023-03-27T01:13:07.111Z,997.24
2023-03-27T01:14:07.123Z,997.23
2023-03-27T01:15:07.107Z,997.22
2023-03-27T01:16:07.204Z,997.16
2023-03-27T01:17:07.152Z,997.17
2023-03-27T01:18:07.164Z,997.20
2023-03-27T01:19:07.114Z,997.19
2023-03-27T01:20:07.143Z,997.21
2023-03-27T01:21:07.124Z,997.14
2023-03-27T01:22:07.128Z,997.17
2023-03-27T01:23:07.120Z,997.15
2023-03-27T01:24:07.126Z,997.13
2023-03-27T01:25:07.128Z,997.18
2023-03-27T01:26:07.131Z,997.15
2023-03-27T01:27:07.130Z,997.10
2023-03-27T01:28:07.129Z,997.09
2023-03-27T01:29:07.134Z,997.12
2023-03-27T01:30:07.141Z,997.10
2023-03-27T01:31:07.149Z,997.11
2023-03-27T01:32:07.139Z,997.05
2023-03-27T01:33:07.201Z,997.11
2023-03-27T01:34:07.139Z,997.10
2023-03-27T01:35:07.146Z,997.05
2023-03-27T01:36:07.144Z,997.10
2023-03-27T01:37:07.154Z,997.05
2023-03-27T01:38:07.149Z,997.08
2023-03-27T01:39:07.158Z,997.08
2023-03-27T01:40:07.159Z,997.01
2023-03-27T01:41:07.154Z,997.02
2023-03-27T01:42:07.162Z,997.01
2023-03-27T01:43:07.167Z,997.03
2023-03-27T01:44:07.162Z,997.01
2023-03-27T01:45:07.171Z,996.95
2023-03-27T01:46:07.167Z,996.98
2023-03-27T01:47:07.170Z,997.02
2023-03-27T01:48:07.180Z,997.01
2023-03-27T01:49:07.199Z,997.03
2023-03-27T01:50:07.178Z,997.02
2023-03-27T01:51:07.172Z,997.05
2023-03-27T01:52:07.184Z,997.02
2023-03-27T01:53:07.189Z,997.04
2023-03-27T01:54:07.184Z,997.01
2023-03-27T01:55:07.186Z,997.01
2023-03-27T01:56:07.193Z,997.01
2023-03-27T01:57:07.220Z,997.05
2023-03-27T01:58:07.188Z,997.03
2023-03-27T01:59:07.189Z,997.05
2023-03-27T02:00:18.133Z,997.02
2023-03-27T02:01:07.412Z,997.02
2023-03-27T02:02:07.194Z,997.01
2023-03-27T02:03:07.200Z,997.02
2023-03-27T02:04:07.210Z,997.05
2023-03-27T02:05:07.301Z,997.00
2023-03-27T02:06:07.211Z,997.00
2023-03-27T02:07:07.213Z,997.03
2023-03-27T02:08:07.209Z,997.01
2023-03-27T02:09:07.225Z,996.99
2023-03-27T02:10:07.207Z,997.01
2023-03-27T02:11:07.215Z,997.02
2023-03-27T02:12:07.222Z,997.00
2023-03-27T02:13:07.221Z,997.09
2023-03-27T02:14:07.228Z,997.03
2023-03-27T02:15:23.628Z,997.03
2023-03-27T02:16:07.268Z,997.05
2023-03-27T02:17:07.221Z,997.08
2023-03-27T02:18:07.228Z,997.06
2023-03-27T02:19:07.232Z,997.05
2023-03-27T02:20:07.230Z,997.03
2023-03-27T02:21:07.252Z,997.04
2023-03-27T02:22:07.237Z,997.04
2023-03-27T02:23:07.241Z,997.02
2023-03-27T02:24:07.244Z,997.07
2023-03-27T02:25:07.239Z,997.06
2023-03-27T02:26:07.246Z,997.05
2023-03-27T02:27:07.243Z,997.03
2023-03-27T02:28:07.247Z,997.04
2023-03-27T02:29:07.250Z,997.03
2023-03-27T02:30:07.251Z,997.07
2023-03-27T02:31:32.245Z,997.06
2023-03-27T02:32:07.351Z,997.02
2023-03-27T02:33:07.334Z,997.00
2023-03-27T02:34:07.263Z,996.97
2023-03-27T02:35:07.273Z,997.04
2023-03-27T02:36:08.834Z,997.04
2023-03-27T02:37:07.331Z,997.02
2023-03-27T02:38:07.269Z,997.01
2023-03-27T02:39:07.265Z,997.03
2023-03-27T02:40:07.268Z,997.00
2023-03-27T02:41:07.275Z,997.01
2023-03-27T02:42:07.277Z,997.03
2023-03-27T02:43:07.282Z,997.02
2023-03-27T02:44:07.278Z,997.01
2023-03-27T02:45:07.287Z,997.03
2023-03-27T02:46:07.321Z,997.04
2023-03-27T02:47:07.294Z,997.06
2023-03-27T02:48:07.628Z,997.04
2023-03-27T02:49:07.288Z,997.04
2023-03-27T02:50:07.303Z,997.07
2023-03-27T02:51:07.306Z,997.04
2023-03-27T02:52:07.296Z,997.07
2023-03-27T02:53:07.330Z,997.00
2023-03-27T02:54:07.296Z,996.99
2023-03-27T02:55:07.317Z,997.02
2023-03-27T02:56:07.306Z,997.01
2023-03-27T02:57:07.330Z,996.97
2023-03-27T02:58:07.307Z,996.98
2023-03-27T02:59:07.308Z,996.97
2023-03-27T03:00:07.306Z,996.96
2023-03-27T03:01:07.339Z,996.96
2023-03-27T03:02:07.438Z,997.00
2023-03-27T03:03:07.495Z,997.04
2023-03-27T03:04:07.329Z,996.99
2023-03-27T03:05:07.318Z,996.99
2023-03-27T03:06:07.489Z,996.98
2023-03-27T03:07:07.322Z,996.98
2023-03-27T03:08:07.323Z,996.96
2023-03-27T03:09:07.360Z,996.96
2023-03-27T03:10:09.466Z,996.95
2023-03-27T03:11:07.330Z,996.93
2023-03-27T03:12:07.338Z,996.98
2023-03-27T03:13:07.335Z,996.98
2023-03-27T03:14:07.339Z,996.95
2023-03-27T03:15:07.341Z,996.98
2023-03-27T03:16:07.340Z,996.96
2023-03-27T03:17:07.346Z,996.95
2023-03-27T03:18:07.405Z,996.95
2023-03-27T03:19:07.360Z,996.96
2023-03-27T03:20:07.353Z,996.95
2023-03-27T03:21:07.352Z,996.98
2023-03-27T03:22:07.363Z,996.96
2023-03-27T03:23:07.358Z,996.99
2023-03-27T03:24:07.363Z,997.04
2023-03-27T03:25:07.422Z,997.02
2023-03-27T03:26:07.368Z,997.02
2023-03-27T03:27:07.356Z,997.04
2023-03-27T03:28:07.365Z,997.05
2023-03-27T03:29:07.367Z,997.07
2023-03-27T03:30:07.362Z,997.06
2023-03-27T03:31:07.414Z,997.08
2023-03-27T03:32:07.374Z,997.07
2023-03-27T03:33:07.407Z,997.08
2023-03-27T03:34:07.368Z,997.07
2023-03-27T03:35:07.378Z,997.11
2023-03-27T03:36:07.430Z,997.09
2023-03-27T03:37:07.383Z,997.14
2023-03-27T03:38:07.583Z,997.08
2023-03-27T03:39:07.381Z,997.10
2023-03-27T03:40:07.378Z,997.10
2023-03-27T03:41:07.419Z,997.08
2023-03-27T03:42:07.388Z,997.10
2023-03-27T03:43:07.394Z,997.12
2023-03-27T03:44:07.390Z,997.08
2023-03-27T03:45:07.406Z,997.08
2023-03-27T03:46:07.445Z,997.09
2023-03-27T03:47:07.394Z,997.11
2023-03-27T03:48:07.635Z,997.10
2023-03-27T03:49:07.403Z,997.09
2023-03-27T03:50:07.415Z,997.08
2023-03-27T03:51:07.404Z,997.07
2023-03-27T03:52:07.427Z,997.03
2023-03-27T03:53:07.459Z,997.06
2023-03-27T03:54:07.413Z,997.06
2023-03-27T03:55:07.413Z,997.05
2023-03-27T03:56:07.413Z,997.04
2023-03-27T03:57:07.475Z,997.01
2023-03-27T03:58:07.414Z,997.02
2023-03-27T03:59:07.414Z,997.02
2023-03-27T04:00:07.418Z,997.02
2023-03-27T04:01:07.419Z,997.07
2023-03-27T04:02:07.432Z,997.03
2023-03-27T04:03:07.541Z,997.02
2023-03-27T04:04:07.424Z,997.05
2023-03-27T04:05:09.064Z,997.04
2023-03-27T04:06:07.449Z,997.06
2023-03-27T04:07:07.431Z,997.04
2023-03-27T04:08:07.583Z,996.96
2023-03-27T04:09:07.439Z,997.05
2023-03-27T04:10:07.434Z,997.01
2023-03-27T04:11:07.441Z,996.99
2023-03-27T04:12:07.458Z,997.00
2023-03-27T04:13:07.638Z,996.96
2023-03-27T04:14:07.441Z,996.97
2023-03-27T04:15:07.453Z,996.95
2023-03-27T04:16:07.482Z,996.92
2023-03-27T04:17:07.449Z,996.96
2023-03-27T04:18:07.553Z,996.93
2023-03-27T04:19:07.451Z,996.97
2023-03-27T04:20:07.450Z,996.97
2023-03-27T04:21:07.460Z,996.96
2023-03-27T04:22:07.454Z,996.93
2023-03-27T04:23:07.456Z,996.96
2023-03-27T04:24:07.482Z,996.97
2023-03-27T04:25:07.465Z,996.92
2023-03-27T04:26:07.523Z,996.92
2023-03-27T04:27:07.465Z,996.97
2023-03-27T04:28:07.722Z,996.97
2023-03-27T04:29:07.497Z,996.91
2023-03-27T04:30:07.481Z,996.98
2023-03-27T04:31:07.521Z,996.95
2023-03-27T04:32:07.474Z,996.97
2023-03-27T04:33:07.659Z,996.96
2023-03-27T04:34:07.481Z,996.96
2023-03-27T04:35:07.484Z,996.94
2023-03-27T04:36:07.963Z,996.93
2023-03-27T04:37:07.493Z,996.93
2023-03-27T04:38:07.488Z,996.93
2023-03-27T04:39:07.509Z,996.95
2023-03-27T04:40:07.499Z,996.90
2023-03-27T04:41:07.502Z,996.87
2023-03-27T04:42:07.515Z,996.90
2023-03-27T04:43:07.506Z,996.89
2023-03-27T04:44:07.505Z,996.87
2023-03-27T04:45:07.535Z,996.91
2023-03-27T04:46:07.509Z,996.91
2023-03-27T04:47:08.933Z,996.88
2023-03-27T04:48:07.617Z,996.87
2023-03-27T04:49:07.510Z,996.84
2023-03-27T04:50:07.521Z,996.83
2023-03-27T04:51:07.523Z,996.80
2023-03-27T04:52:07.519Z,996.83
2023-03-27T04:53:07.524Z,996.83
2023-03-27T04:54:07.531Z,996.84
2023-03-27T04:55:07.527Z,996.83
2023-03-27T04:56:07.533Z,996.85
2023-03-27T04:57:07.557Z,996.86
2023-03-27T04:58:07.598Z,996.85
2023-03-27T04:59:07.530Z,996.89
2023-03-27T05:00:07.530Z,996.86
2023-03-27T05:01:07.615Z,996.90
2023-03-27T05:02:07.543Z,996.88
2023-03-27T05:03:07.886Z,996.88
2023-03-27T05:04:07.541Z,996.91
2023-03-27T05:05:07.548Z,996.89
2023-03-27T05:06:07.539Z,996.93
2023-03-27T05:07:07.546Z,996.92
2023-03-27T05:08:09.331Z,996.95
2023-03-27T05:09:07.548Z,996.92
2023-03-27T05:10:07.549Z,996.91
2023-03-27T05:11:07.554Z,996.92
2023-03-27T05:12:07.561Z,996.85
2023-03-27T05:13:07.560Z,996.84
2023-03-27T05:14:07.558Z,996.86
2023-03-27T05:15:07.566Z,996.84
2023-03-27T05:16:07.604Z,996.83
2023-03-27T05:17:07.585Z,996.84
2023-03-27T05:18:07.685Z,996.83
2023-03-27T05:19:07.864Z,996.81
2023-03-27T05:20:07.569Z,996.82
2023-03-27T05:21:07.572Z,996.85
2023-03-27T05:22:07.567Z,996.83
2023-03-27T05:23:07.579Z,996.83
2023-03-27T05:24:07.570Z,996.82
2023-03-27T05:25:07.574Z,996.83
2023-03-27T05:26:07.578Z,996.78
2023-03-27T05:27:07.580Z,996.86
2023-03-27T05:28:07.580Z,996.80
2023-03-27T05:29:07.738Z,996.77
2023-03-27T05:30:07.587Z,996.76
2023-03-27T05:31:07.642Z,996.76
2023-03-27T05:32:07.586Z,996.76
2023-03-27T05:33:07.665Z,996.75
2023-03-27T05:34:07.593Z,996.73
2023-03-27T05:35:07.598Z,996.77
2023-03-27T05:36:07.596Z,996.75
2023-03-27T05:37:07.598Z,996.76
2023-03-27T05:38:07.602Z,996.76
2023-03-27T05:39:07.609Z,996.77
2023-03-27T05:40:07.600Z,996.78
2023-03-27T05:41:07.609Z,996.80
2023-03-27T05:42:07.607Z,996.83
2023-03-27T05:43:07.607Z,996.76
2023-03-27T05:44:07.628Z,996.83
2023-03-27T05:45:07.612Z,996.79
2023-03-27T05:46:07.645Z,996.80
2023-03-27T05:47:07.626Z,996.83
2023-03-27T05:48:07.802Z,996.83
2023-03-27T05:49:07.705Z,996.81
2023-03-27T05:50:07.615Z,996.79
2023-03-27T05:51:07.623Z,996.82
2023-03-27T05:52:07.621Z,996.81
2023-03-27T05:53:07.625Z,996.78
2023-03-27T05:54:07.627Z,996.79
2023-03-27T05:55:07.640Z,996.76
2023-03-27T05:56:07.635Z,996.76
2023-03-27T05:57:07.677Z,996.77
2023-03-27T05:58:07.637Z,996.79
2023-03-27T05:59:07.640Z,996.76
2023-03-27T06:00:07.641Z,996.77
2023-03-27T06:01:07.643Z,996.80
2023-03-27T06:02:07.715Z,996.73
2023-03-27T06:03:07.679Z,996.77
2023-03-27T06:04:07.815Z,996.75
2023-03-27T06:05:07.697Z,996.74
2023-03-27T06:06:07.648Z,996.74
2023-03-27T06:07:07.651Z,996.75
2023-03-27T06:08:07.660Z,996.76
2023-03-27T06:09:07.727Z,996.79
2023-03-27T06:10:13.090Z,996.78
2023-03-27T06:11:07.667Z,996.71
2023-03-27T06:12:07.674Z,996.70
2023-03-27T06:13:07.667Z,996.68
2023-03-27T06:14:07.714Z,996.72
2023-03-27T06:15:07.664Z,996.71
2023-03-27T06:16:07.713Z,996.66
2023-03-27T06:17:07.673Z,996.72
2023-03-27T06:18:07.709Z,996.74
2023-03-27T06:19:07.677Z,996.70
2023-03-27T06:20:07.675Z,996.72
2023-03-27T06:21:07.702Z,996.75
2023-03-27T06:22:07.679Z,996.70
2023-03-27T06:23:07.686Z,996.70
2023-03-27T06:24:07.693Z,996.68
2023-03-27T06:25:07.690Z,996.73
2023-03-27T06:26:07.694Z,996.70
2023-03-27T06:27:09.705Z,996.69
2023-03-27T06:28:07.690Z,996.69
2023-03-27T06:29:08.029Z,996.65
2023-03-27T06:30:07.703Z,996.60
2023-03-27T06:31:07.727Z,996.61
2023-03-27T06:32:07.700Z,996.61
2023-03-27T06:33:07.904Z,996.60
2023-03-27T06:34:07.707Z,996.64
2023-03-27T06:35:07.724Z,996.64
2023-03-27T06:36:07.713Z,996.59
2023-03-27T06:37:07.748Z,996.64
2023-03-27T06:38:07.713Z,996.60
2023-03-27T06:39:07.862Z,996.60
2023-03-27T06:40:07.731Z,996.66
2023-03-27T06:41:07.729Z,996.67
2023-03-27T06:42:07.722Z,996.66
2023-03-27T06:43:07.726Z,996.69
2023-03-27T06:44:07.720Z,996.71
2023-03-27T06:45:07.733Z,996.69
2023-03-27T06:46:07.740Z,996.70
2023-03-27T06:47:07.793Z,996.66
2023-03-27T06:48:18.064Z,996.76
2023-03-27T06:49:07.752Z,996.68
2023-03-27T06:50:07.732Z,996.73
2023-03-27T06:51:07.734Z,996.73
2023-03-27T06:52:07.759Z,996.76
2023-03-27T06:53:19.704Z,996.70
2023-03-27T06:54:07.749Z,996.72
2023-03-27T06:55:07.742Z,996.71
2023-03-27T06:56:07.750Z,996.77
2023-03-27T06:57:07.805Z,996.70
2023-03-27T06:58:07.751Z,996.74
2023-03-27T06:59:07.749Z,996.70
2023-03-27T07:00:08.061Z,996.65
2023-03-27T07:01:07.759Z,996.71
2023-03-27T07:02:07.790Z,996.71
2023-03-27T07:03:07.802Z,996.68
2023-03-27T07:04:07.810Z,996.67
2023-03-27T07:05:07.808Z,996.67
2023-03-27T07:06:07.818Z,996.70
2023-03-27T07:07:07.761Z,996.67
2023-03-27T07:08:20.778Z,996.71
2023-03-27T07:09:07.825Z,996.71
2023-03-27T07:10:07.771Z,996.70
2023-03-27T07:11:12.231Z,996.75
2023-03-27T07:12:07.774Z,996.70
2023-03-27T07:13:07.788Z,996.71
2023-03-27T07:14:07.772Z,996.76
2023-03-27T07:15:07.773Z,996.74
2023-03-27T07:16:07.831Z,996.70
2023-03-27T07:17:09.203Z,996.74
2023-03-27T07:18:07.814Z,996.70
2023-03-27T07:19:07.792Z,996.69
2023-03-27T07:20:07.780Z,996.72
2023-03-27T07:21:07.790Z,996.66
2023-03-27T07:22:07.790Z,996.69
2023-03-27T07:23:07.782Z,996.73
2023-03-27T07:24:07.807Z,996.73
2023-03-27T07:25:07.821Z,996.73
2023-03-27T07:26:07.795Z,996.72
2023-03-27T07:27:07.795Z,996.71
2023-03-27T07:28:07.796Z,996.77
2023-03-27T07:29:07.852Z,996.72
2023-03-27T07:30:07.804Z,996.70
2023-03-27T07:31:13.718Z,996.65
2023-03-27T07:32:09.387Z,996.74
2023-03-27T07:33:07.869Z,996.61
2023-03-27T07:34:07.910Z,996.69
2023-03-27T07:35:07.806Z,996.65
2023-03-27T07:36:07.862Z,996.67
2023-03-27T07:37:07.816Z,996.69
2023-03-27T07:38:07.822Z,996.72
2023-03-27T07:39:07.821Z,996.61
2023-03-27T07:40:07.828Z,996.61
2023-03-27T07:41:07.843Z,996.69
2023-03-27T07:42:07.816Z,996.64
2023-03-27T07:43:07.854Z,996.59
2023-03-27T07:44:07.827Z,996.59
2023-03-27T07:45:07.858Z,996.61
2023-03-27T07:46:07.886Z,996.55
2023-03-27T07:47:07.834Z,996.64
2023-03-27T07:48:07.924Z,996.62
2023-03-27T07:49:07.846Z,996.66
2023-03-27T07:50:07.855Z,996.67
2023-03-27T07:51:13.841Z,996.65
2023-03-27T07:52:07.847Z,996.62
2023-03-27T07:53:07.839Z,996.67
2023-03-27T07:54:07.848Z,996.72
2023-03-27T07:55:07.859Z,996.67
2023-03-27T07:56:07.855Z,996.70
2023-03-27T07:57:08.096Z,996.60
2023-03-27T07:58:07.907Z,996.70
2023-03-27T07:59:08.161Z,996.72
2023-03-27T08:00:07.863Z,996.74
2023-03-27T08:01:07.877Z,996.72
2023-03-27T08:02:07.883Z,996.67
2023-03-27T08:03:08.156Z,996.72
2023-03-27T08:04:07.948Z,996.61
2023-03-27T08:05:08.034Z,996.72
2023-03-27T08:06:07.873Z,996.73
2023-03-27T08:07:07.872Z,996.70
2023-03-27T08:08:07.870Z,996.72
2023-03-27T08:09:07.883Z,996.74
2023-03-27T08:10:07.879Z,996.77
2023-03-27T08:11:13.436Z,996.66
2023-03-27T08:12:07.890Z,996.74
2023-03-27T08:13:07.902Z,996.69
2023-03-27T08:14:07.884Z,996.72
2023-03-27T08:15:07.891Z,996.80
2023-03-27T08:16:07.908Z,996.77
2023-03-27T08:17:15.587Z,996.82
2023-03-27T08:18:07.923Z,996.74
2023-03-27T08:19:07.909Z,996.79
2023-03-27T08:20:07.903Z,996.72
2023-03-27T08:21:07.899Z,996.77
2023-03-27T08:22:07.904Z,996.68
2023-03-27T08:23:07.905Z,996.72
2023-03-27T08:24:07.919Z,996.71
2023-03-27T08:25:07.919Z,996.67
2023-03-27T08:26:07.926Z,996.73
2023-03-27T08:27:07.932Z,996.73
2023-03-27T08:28:07.916Z,996.60
2023-03-27T08:29:07.943Z,996.61
2023-03-27T08:30:07.985Z,996.66
2023-03-27T08:31:08.117Z,996.67
2023-03-27T08:32:07.943Z,996.63
2023-03-27T08:33:07.969Z,996.60
2023-03-27T08:34:07.929Z,996.63
2023-03-27T08:35:07.934Z,996.68
2023-03-27T08:36:10.315Z,996.61
2023-03-27T08:37:07.929Z,996.69
2023-03-27T08:38:19.976Z,996.67
2023-03-27T08:39:07.930Z,996.63
2023-03-27T08:40:07.944Z,996.67
2023-03-27T08:41:07.951Z,996.66
2023-03-27T08:42:07.943Z,996.70
2023-03-27T08:43:07.949Z,996.66
2023-03-27T08:44:07.946Z,996.64
2023-03-27T08:45:08.120Z,996.66
2023-03-27T08:46:08.033Z,996.63
2023-03-27T08:47:07.959Z,996.63
2023-03-27T08:48:07.991Z,996.61
2023-03-27T08:49:07.961Z,996.65
2023-03-27T08:50:07.977Z,996.67
2023-03-27T08:51:07.975Z,996.65
2023-03-27T08:52:07.962Z,996.72
2023-03-27T08:53:07.967Z,996.66
2023-03-27T08:54:07.971Z,996.67
2023-03-27T08:55:08.009Z,996.66
2023-03-27T08:56:07.977Z,996.63
2023-03-27T08:57:08.046Z,996.62
2023-03-27T08:58:07.981Z,996.66
2023-03-27T08:59:07.981Z,996.70
2023-03-27T09:00:07.980Z,996.66
2023-03-27T09:01:08.061Z,996.65
2023-03-27T09:02:08.029Z,996.61
2023-03-27T09:03:08.088Z,996.67
2023-03-27T09:04:08.000Z,996.66
2023-03-27T09:05:07.988Z,996.68
2023-03-27T09:06:08.006Z,996.65
2023-03-27T09:07:08.001Z,996.67
2023-03-27T09:08:07.991Z,996.68
2023-03-27T09:09:07.996Z,996.71
2023-03-27T09:10:08.016Z,996.71
2023-03-27T09:11:08.000Z,996.68
2023-03-27T09:12:08.017Z,996.69
2023-03-27T09:13:08.022Z,996.70
2023-03-27T09:14:08.000Z,996.71
2023-03-27T09:15:08.004Z,996.69
2023-03-27T09:16:08.043Z,996.69
2023-03-27T09:17:08.035Z,996.72
2023-03-27T09:18:08.043Z,996.69
2023-03-27T09:19:08.017Z,996.71
2023-03-27T09:20:08.062Z,996.65
2023-03-27T09:21:08.021Z,996.68
2023-03-27T09:22:08.020Z,996.72
2023-03-27T09:23:08.022Z,996.71
2023-03-27T09:24:08.030Z,996.72
2023-03-27T09:25:08.200Z,996.76
2023-03-27T09:26:08.023Z,996.73
2023-03-27T09:27:08.030Z,996.71
2023-03-27T09:28:08.026Z,996.74
2023-03-27T09:29:08.031Z,996.71
2023-03-27T09:30:08.032Z,996.72
2023-03-27T09:31:08.045Z,996.71
2023-03-27T09:32:08.039Z,996.68
2023-03-27T09:33:08.104Z,996.68
2023-03-27T09:34:08.069Z,996.70
2023-03-27T09:35:08.044Z,996.70
2023-03-27T09:36:08.091Z,996.68
2023-03-27T09:37:08.047Z,996.69
2023-03-27T09:38:08.048Z,996.67
2023-03-27T09:39:08.204Z,996.66
2023-03-27T09:40:08.050Z,996.67
2023-03-27T09:41:08.061Z,996.68
2023-03-27T09:42:08.156Z,996.67
2023-03-27T09:43:08.056Z,996.64
2023-03-27T09:44:08.064Z,996.68
2023-03-27T09:45:08.105Z,996.69
2023-03-27T09:46:08.064Z,996.69
2023-03-27T09:47:08.109Z,996.69
2023-03-27T09:48:08.168Z,996.71
2023-03-27T09:49:08.106Z,996.74
2023-03-27T09:50:08.078Z,996.76
2023-03-27T09:51:08.078Z,996.78
2023-03-27T09:52:08.070Z,996.80
2023-03-27T09:53:08.083Z,996.84
2023-03-27T09:54:08.085Z,996.85
2023-03-27T09:55:08.085Z,996.85
2023-03-27T09:56:08.094Z,996.88
2023-03-27T09:57:08.136Z,996.82
2023-03-27T09:58:08.086Z,996.85
2023-03-27T09:59:08.086Z,996.86
2023-03-27T10:00:08.093Z,996.81
2023-03-27T10:01:08.254Z,996.80
2023-03-27T10:02:08.107Z,996.91
2023-03-27T10:03:08.289Z,996.88
2023-03-27T10:04:08.210Z,996.90
2023-03-27T10:05:08.118Z,996.89
2023-03-27T10:06:08.103Z,996.88
2023-03-27T10:07:08.108Z,996.87
2023-03-27T10:08:08.104Z,996.88
2023-03-27T10:09:08.112Z,996.92
2023-03-27T10:10:08.114Z,996.92
2023-03-27T10:11:08.125Z,997.01
2023-03-27T10:12:08.173Z,996.97
2023-03-27T10:13:08.116Z,997.04
2023-03-27T10:14:08.124Z,997.02
2023-03-27T10:15:08.127Z,997.03
2023-03-27T10:16:08.242Z,997.04
2023-03-27T10:17:08.364Z,997.03
2023-03-27T10:18:08.212Z,997.01
2023-03-27T10:19:08.133Z,997.08
2023-03-27T10:20:08.133Z,997.08
2023-03-27T10:21:08.156Z,997.07
2023-03-27T10:22:08.138Z,997.06
2023-03-27T10:23:08.298Z,997.04
2023-03-27T10:24:08.140Z,997.03
2023-03-27T10:25:08.139Z,997.03
2023-03-27T10:26:08.144Z,997.00
2023-03-27T10:27:08.169Z,997.06
2023-03-27T10:28:08.161Z,997.07
2023-03-27T10:29:08.150Z,997.04
2023-03-27T10:30:08.154Z,997.01
2023-03-27T10:31:08.162Z,997.00
2023-03-27T10:32:08.282Z,997.05
2023-03-27T10:33:08.194Z,997.00
2023-03-27T10:34:08.156Z,997.00
2023-03-27T10:35:08.188Z,997.02
2023-03-27T10:36:08.198Z,997.04
2023-03-27T10:37:08.187Z,997.04
2023-03-27T10:38:08.163Z,997.04
2023-03-27T10:39:08.215Z,997.03
2023-03-27T10:40:08.168Z,997.03
2023-03-27T10:41:08.178Z,997.01
2023-03-27T10:42:08.174Z,997.01
2023-03-27T10:43:08.174Z,997.01
2023-03-27T10:44:08.174Z,996.92
2023-03-27T10:45:08.178Z,996.98
2023-03-27T10:46:08.207Z,996.99
2023-03-27T10:47:08.257Z,996.95
2023-03-27T10:48:08.229Z,996.91
2023-03-27T10:49:08.199Z,996.88
2023-03-27T10:50:08.200Z,996.91
2023-03-27T10:51:08.193Z,996.85
2023-03-27T10:52:08.223Z,996.89
2023-03-27T10:53:08.326Z,996.91
2023-03-27T10:54:08.233Z,996.94
2023-03-27T10:55:08.224Z,996.92
2023-03-27T10:56:08.254Z,996.95
2023-03-27T10:57:08.275Z,997.00
2023-03-27T10:58:08.201Z,997.02
2023-03-27T10:59:08.208Z,996.97
2023-03-27T11:00:08.216Z,996.99
2023-03-27T11:01:08.356Z,997.00
2023-03-27T11:02:09.853Z,996.99
2023-03-27T11:03:08.250Z,996.98
2023-03-27T11:04:08.326Z,996.96
2023-03-27T11:05:08.235Z,996.96
2023-03-27T11:06:08.270Z,996.93
2023-03-27T11:07:08.226Z,996.97
2023-03-27T11:08:08.226Z,996.96
2023-03-27T11:09:08.252Z,997.01
2023-03-27T11:10:08.221Z,997.00
2023-03-27T11:11:08.280Z,997.03
2023-03-27T11:12:08.242Z,997.05
2023-03-27T11:13:08.228Z,997.05
2023-03-27T11:14:08.250Z,997.04
2023-03-27T11:15:08.234Z,997.04
2023-03-27T11:16:08.250Z,997.03
2023-03-27T11:17:08.290Z,997.04
2023-03-27T11:18:08.342Z,997.05
2023-03-27T11:19:08.243Z,997.03
2023-03-27T11:20:08.247Z,997.03
2023-03-27T11:21:08.253Z,997.02
2023-03-27T11:22:08.253Z,997.09
2023-03-27T11:23:08.257Z,997.06
2023-03-27T11:24:08.256Z,997.04
2023-03-27T11:25:08.325Z,997.07
2023-03-27T11:26:08.406Z,997.06
2023-03-27T11:27:08.261Z,997.04
2023-03-27T11:28:08.264Z,997.12
2023-03-27T11:29:08.281Z,997.12
2023-03-27T11:30:08.339Z,997.10
2023-03-27T11:31:11.957Z,997.11
2023-03-27T11:32:08.279Z,997.12
2023-03-27T11:33:08.366Z,997.05
2023-03-27T11:34:08.269Z,997.03
2023-03-27T11:35:08.289Z,997.05
2023-03-27T11:36:08.296Z,997.00
2023-03-27T11:37:08.278Z,997.04
2023-03-27T11:38:08.280Z,997.03
2023-03-27T11:39:08.283Z,997.00
2023-03-27T11:40:08.298Z,997.03
2023-03-27T11:41:08.310Z,997.04
2023-03-27T11:42:08.288Z,997.13
2023-03-27T11:43:08.304Z,997.07
2023-03-27T11:44:08.292Z,997.09
2023-03-27T11:45:08.297Z,997.10
2023-03-27T11:46:08.313Z,997.06
2023-03-27T11:47:08.321Z,997.10
2023-03-27T11:48:10.903Z,997.10
2023-03-27T11:49:08.304Z,997.16
2023-03-27T11:50:08.316Z,997.09
2023-03-27T11:51:08.311Z,997.13
2023-03-27T11:52:08.310Z,997.13
2023-03-27T11:53:08.331Z,997.09
2023-03-27T11:54:08.312Z,997.13
2023-03-27T11:55:08.323Z,997.16
2023-03-27T11:56:08.316Z,997.13
2023-03-27T11:57:08.429Z,997.17
2023-03-27T11:58:08.319Z,997.13
2023-03-27T11:59:08.327Z,997.11
2023-03-27T12:00:08.345Z,997.11
2023-03-27T12:01:08.516Z,997.05
2023-03-27T12:02:08.358Z,997.00
2023-03-27T12:03:08.476Z,997.05
2023-03-27T12:04:08.406Z,997.03
2023-03-27T12:05:08.336Z,997.06
2023-03-27T12:06:08.482Z,997.07
2023-03-27T12:07:11.742Z,997.12
2023-03-27T12:08:08.342Z,997.15
2023-03-27T12:09:08.350Z,997.12
2023-03-27T12:10:08.349Z,997.19
2023-03-27T12:11:08.346Z,997.19
2023-03-27T12:12:08.352Z,997.17
2023-03-27T12:13:08.375Z,997.19
2023-03-27T12:14:17.707Z,997.22
2023-03-27T12:15:08.358Z,997.24
2023-03-27T12:16:08.404Z,997.23
2023-03-27T12:17:08.359Z,997.23
2023-03-27T12:18:08.385Z,997.24
2023-03-27T12:19:21.025Z,997.21
2023-03-27T12:20:08.367Z,997.21
2023-03-27T12:21:08.365Z,997.21
2023-03-27T12:22:21.065Z,997.25
2023-03-27T12:23:08.369Z,997.19
2023-03-27T12:24:08.375Z,997.20
2023-03-27T12:25:08.378Z,997.22
2023-03-27T12:26:08.370Z,997.22
2023-03-27T12:27:08.379Z,997.19
2023-03-27T12:28:08.389Z,997.16